»·PEaware :: N321KL KSBA-KBUR

N321KL :: KSBA-KBUR

FLIGHT INFORMATION

Flight Status: Arrived
Operator: Privately registered:
United States
More flights under this callsign
Pilot: Rafael F. (17538)
Aircraft: Unknown
(SF50)
More flights by this aircraft type
Origin: KSBA Santa Barbara Mun
United States
Destination: KBUR Bob Hope-Burbank
United States
More flights between these airports :: More routes between these airports
Route: +
File this flight plan on PilotEdge
Remarks: CAT8
Altitude:
(Current/Filed)
0ft
Speed:
(Current/Filed)
0kts
Departed: 03-Jan-18 06:25 PM
Arrived: 03-Jan-18 06:53 PM
Distance/Time
Traveled:
75nm/0:28
Distance/Time
To Go:
Arrived

Flight Plot

Page will automatically refresh every two minutes.


Map Options




Map Legend


Flown Route
Filed Route
Departure Airport
Arrival Airport
Navaid (VOR, NDB)
Fix

Horizontal Profiles

Position Reports

Time Latitude Longitude Heading Altitude Ground
Speed
03-Jan-18 18:11 34.422654 -119.835589 340 11ft 0kts
03-Jan-18 18:12 34.422654 -119.835589 340 11ft 0kts
03-Jan-18 18:13 34.422654 -119.835589 340 11ft 0kts
03-Jan-18 18:14 34.422654 -119.835589 340 11ft 0kts
03-Jan-18 18:15 34.422654 -119.835589 340 11ft 0kts
03-Jan-18 18:16 34.422654 -119.835589 340 11ft 0kts
03-Jan-18 18:17 34.422654 -119.835589 340 11ft 0kts
03-Jan-18 18:18 34.422654 -119.835589 340 11ft 0kts
03-Jan-18 18:19 34.422654 -119.835589 340 11ft 0kts
03-Jan-18 18:20 34.422654 -119.835589 340 11ft 0kts
03-Jan-18 18:21 34.422656 -119.835590 340 11ft 0kts
03-Jan-18 18:22 34.423989 -119.837522 346 13ft 13kts
03-Jan-18 18:23 34.426695 -119.837907 85 11ft 10kts
03-Jan-18 18:24 34.427103 -119.834603 348 11ft 0kts
03-Jan-18 18:25 34.427103 -119.834603 348 11ft 0kts
03-Jan-18 18:26 34.427103 -119.834603 348 11ft 0kts
03-Jan-18 18:27 34.427103 -119.834603 348 11ft 0kts
03-Jan-18 18:28 34.427103 -119.834603 348 11ft 0kts
03-Jan-18 18:29 34.427103 -119.834603 348 11ft 0kts
03-Jan-18 18:30 34.427816 -119.834760 324 11ft 10kts
03-Jan-18 18:31 34.427837 -119.867504 272 649ft 175kts
03-Jan-18 18:32 34.429917 -119.931982 272 942ft 177kts
03-Jan-18 18:33 34.442496 -119.974696 359 949ft 133kts
03-Jan-18 18:34 34.447803 -119.946814 113 3616ft 83kts
03-Jan-18 18:35 34.438429 -119.912179 104 4881ft 169kts
03-Jan-18 18:36 34.427158 -119.846676 100 6172ft 211kts
03-Jan-18 18:37 34.416585 -119.775585 99 7510ft 243kts
03-Jan-18 18:38 34.403595 -119.687069 99 7503ft 281kts
03-Jan-18 18:39 34.390062 -119.595191 99 7490ft 254kts
03-Jan-18 18:40 34.378463 -119.516886 99 7496ft 225kts
03-Jan-18 18:41 34.367644 -119.444175 99 7499ft 216kts
03-Jan-18 18:42 34.357045 -119.373180 99 7498ft 213kts
03-Jan-18 18:43 34.346812 -119.304976 100 7500ft 213kts
03-Jan-18 18:44 34.336140 -119.234169 100 7409ft 215kts
03-Jan-18 18:45 34.323791 -119.163625 104 7408ft 213kts
03-Jan-18 18:46 34.308658 -119.094568 104 7408ft 213kts
03-Jan-18 18:47 34.293375 -119.025350 105 7408ft 212kts
03-Jan-18 18:48 34.278126 -118.956515 105 7408ft 212kts
03-Jan-18 18:49 34.262773 -118.887411 105 7408ft 212kts
03-Jan-18 18:50 34.247452 -118.818612 104 7408ft 212kts
03-Jan-18 18:51 34.232107 -118.749974 104 7407ft 206kts
03-Jan-18 18:52 34.217561 -118.685072 105 7404ft 191kts
03-Jan-18 18:53 34.204254 -118.625841 105 7405ft 177kts
03-Jan-18 18:54 34.200451 -118.567481 90 7126ft 185kts
03-Jan-18 18:55 34.199619 -118.498780 90 5722ft 219kts
03-Jan-18 18:56 34.198673 -118.424694 90 4096ft 217kts
03-Jan-18 18:57 34.176532 -118.402081 283 3301ft 178kts
03-Jan-18 18:58 34.197965 -118.378102 89 1068ft 108kts
03-Jan-18 18:59 34.197327 -118.360300 174 715ft 7kts
03-Jan-18 19:00 34.196808 -118.358802 91 711ft 21kts
03-Jan-18 19:01 34.195714 -118.357830 92 707ft 0kts

Navigation Log

Ident Type
1. KSBA Airport
2. KBUR Airport